Time;durP1;ratioP1;P1;durP2;ratioP2;P2;SDS_P1;SDS_P2;PMS_P1;PMS_P2;Temp;Humidity;BMP_temperature;BMP_pressure;BME280_temperature;BME280_humidity;BME280_pressure;Samples;Min_cycle;Max_cycle;Signal;HPM_P1;HPM_P2
2023/11/01 00:06:16;;;;;;;5.25;2.80;;;;;;;17.14;100.00;101364.56;21211698;27;20134;-77
2023/11/01 00:16:41;;;;;;;7.70;3.65;;;;;;;17.01;100.00;101353.94;21217862;27;20051;-76
2023/11/01 00:27:04;;;;;;;7.85;3.20;;;;;;;17.10;100.00;101340.59;21197665;27;20051;-76
2023/11/01 00:37:28;;;;;;;6.55;2.50;;;;;;;16.77;100.00;101357.50;21218067;28;20047;-76
2023/11/01 00:47:51;;;;;;;9.75;4.47;;;;;;;16.66;100.00;101364.63;21198545;28;20112;-77
2023/11/01 00:58:15;;;;;;;8.40;4.60;;;;;;;16.87;100.00;101371.75;21181261;28;20130;-76
2023/11/01 01:08:37;;;;;;;10.00;3.97;;;;;;;16.61;100.00;101366.38;21214128;28;20039;-76
2023/11/01 01:19:02;;;;;;;10.07;4.32;;;;;;;16.73;100.00;101353.09;21194782;28;20055;-77
2023/11/01 01:29:25;;;;;;;8.23;4.45;;;;;;;16.98;100.00;101340.59;21195042;27;21976;-78
2023/11/01 01:39:49;;;;;;;10.18;4.25;;;;;;;16.72;100.00;101330.84;21216126;27;20035;-78
2023/11/01 01:50:12;;;;;;;9.65;4.15;;;;;;;16.72;100.00;101314.84;21198057;27;20074;-77
2023/11/01 02:00:36;;;;;;;8.95;3.60;;;;;;;16.81;100.00;101310.38;21221017;27;20050;-77
2023/11/01 02:10:59;;;;;;;5.85;3.47;;;;;;;16.93;100.00;101313.94;21216847;27;20049;-77
2023/11/01 02:21:23;;;;;;;7.95;3.50;;;;;;;16.80;100.00;101316.63;21210960;27;20375;-77
2023/11/01 02:31:48;;;;;;;6.95;2.90;;;;;;;16.63;100.00;101330.84;21211789;27;20573;-77
2023/11/01 02:42:11;;;;;;;8.55;2.92;;;;;;;16.60;100.00;101340.63;21223251;27;20049;-76
2023/11/01 02:52:35;;;;;;;9.57;3.97;;;;;;;16.85;100.00;101330.84;21206618;27;20550;-77
2023/11/01 03:02:58;;;;;;;7.57;3.72;;;;;;;16.85;100.00;101318.41;21203066;27;20092;-77
2023/11/01 03:13:22;;;;;;;5.15;2.30;;;;;;;16.71;100.00;101317.53;21214862;27;20027;-78
2023/11/01 03:23:45;;;;;;;7.50;2.58;;;;;;;16.68;100.00;101313.06;21190227;27;20053;-77
2023/11/01 03:34:09;;;;;;;5.50;2.28;;;;;;;16.59;100.00;101312.16;21194055;27;20043;-77
2023/11/01 03:44:32;;;;;;;5.18;2.22;;;;;;;16.63;100.00;101300.63;21220208;27;20058;-77
2023/11/01 03:54:56;;;;;;;5.50;3.20;;;;;;;16.54;100.00;101289.97;21207835;27;20142;-76
2023/11/01 04:05:18;;;;;;;10.38;4.75;;;;;;;16.78;100.00;101283.75;21206863;27;20039;-78
2023/11/01 04:15:42;;;;;;;6.15;2.60;;;;;;;16.73;100.00;101299.75;21202290;27;20053;-76
2023/11/01 04:26:05;;;;;;;11.63;3.80;;;;;;;16.99;100.00;101315.72;21140694;27;20407;-76
2023/11/01 04:36:30;;;;;;;10.65;4.70;;;;;;;17.47;100.00;101306.66;21188639;27;20049;-77
2023/11/01 04:46:52;;;;;;;10.32;4.47;;;;;;;17.61;100.00;101336.91;21191884;28;20503;-77
2023/11/01 04:57:16;;;;;;;10.75;4.85;;;;;;;17.73;100.00;101336.84;21200500;28;20062;-77
2023/11/01 05:07:39;;;;;;;8.65;3.92;;;;;;;18.00;100.00;101356.31;21203168;27;20047;-77
2023/11/01 05:18:04;;;;;;;5.55;2.42;;;;;;;17.66;100.00;101360.91;21215439;27;20051;-76
2023/11/01 05:28:26;;;;;;;6.65;2.13;;;;;;;17.57;100.00;101358.25;21213522;27;20051;-77
2023/11/01 05:38:50;;;;;;;6.35;2.08;;;;;;;17.97;100.00;101373.25;21229752;27;20827;-76
2023/11/01 05:49:14;;;;;;;8.10;2.90;;;;;;;18.38;100.00;101348.94;21220375;27;20069;-78
2023/11/01 05:59:38;;;;;;;5.32;1.33;;;;;;;18.77;100.00;101334.44;21229598;27;20082;-77
2023/11/01 06:10:00;;;;;;;5.65;2.00;;;;;;;19.25;100.00;101326.78;21204587;27;20035;-78
2023/11/01 06:20:25;;;;;;;7.68;2.38;;;;;;;19.77;100.00;101329.75;21210215;27;20043;-78
2023/11/01 06:30:48;;;;;;;6.72;2.55;;;;;;;20.90;100.00;101315.53;21226136;27;20579;-78
2023/11/01 06:41:12;;;;;;;7.70;2.83;;;;;;;22.09;100.00;101314.03;21200699;27;20058;-79
2023/11/01 06:51:34;;;;;;;9.88;2.75;;;;;;;22.19;100.00;101311.09;21190207;27;20043;-80
2023/11/01 07:01:58;;;;;;;11.60;2.95;;;;;;;22.18;100.00;101289.63;21218816;27;20108;-79
2023/11/01 07:12:21;;;;;;;9.05;2.70;;;;;;;22.54;100.00;101277.94;21221178;27;20047;-81
2023/11/01 07:22:45;;;;;;;9.35;2.53;;;;;;;23.27;100.00;101289.47;21211899;27;20509;-81
2023/11/01 07:33:08;;;;;;;12.50;2.97;;;;;;;23.44;100.00;101294.38;21176955;27;20055;-80
2023/11/01 07:43:32;;;;;;;9.20;2.30;;;;;;;23.38;100.00;101294.53;21224124;27;20096;-78
2023/11/01 07:53:54;;;;;;;14.85;2.60;;;;;;;23.57;100.00;101289.53;21177978;27;20495;-79
2023/11/01 08:04:18;;;;;;;7.55;2.47;;;;;;;23.94;100.00;101276.72;21160420;27;20048;-78
2023/11/01 08:14:41;;;;;;;11.25;2.38;;;;;;;24.31;100.00;101273.75;21198770;27;20043;-79
2023/11/01 08:25:06;;;;;;;6.93;2.10;;;;;;;24.72;100.00;101244.47;21157904;27;20051;-79
2023/11/01 08:35:29;;;;;;;7.43;1.67;;;;;;;25.15;100.00;101223.09;21193466;27;20490;-80
2023/11/01 08:45:53;;;;;;;7.00;1.80;;;;;;;25.67;99.27;101224.69;21205990;27;20078;-79
2023/11/01 08:56:15;;;;;;;4.15;1.67;;;;;;;25.87;89.52;101221.19;21217845;27;20600;-80
2023/11/01 09:06:39;;;;;;;9.27;1.90;;;;;;;26.02;78.10;101188.09;21237647;27;20051;-81
2023/11/01 09:17:02;;;;;;;5.35;1.50;;;;;;;26.10;71.02;101160.72;21213412;27;20039;-80
2023/11/01 09:27:26;;;;;;;9.07;1.73;;;;;;;26.30;76.91;101179.75;21212047;27;20043;-78
2023/11/01 09:37:48;;;;;;;14.65;2.08;;;;;;;26.46;69.83;101169.13;21196492;27;20044;-77
2023/11/01 09:48:13;;;;;;;7.57;2.22;;;;;;;26.71;89.59;101172.53;21206555;27;20051;-77
2023/11/01 09:58:37;;;;;;;5.07;1.45;;;;;;;26.62;100.00;101162.09;21249107;27;20051;-77
2023/11/01 10:09:01;;;;;;;7.45;1.90;;;;;;;26.27;100.00;101170.84;21282937;27;20047;-77
2023/11/01 10:19:24;;;;;;;6.55;1.60;;;;;;;26.52;100.00;101176.97;21262987;27;20082;-78
2023/11/01 10:29:48;;;;;;;10.35;2.30;;;;;;;26.88;98.98;101194.31;21211618;27;20043;-78
2023/11/01 10:40:11;;;;;;;8.38;2.40;;;;;;;27.15;98.10;101172.34;21290910;27;20051;-78
2023/11/01 10:50:35;;;;;;;8.23;2.40;;;;;;;27.14;100.00;101165.16;21194467;27;20062;-78
2023/11/01 11:01:06;;;;;;;8.30;2.10;;;;;;;27.21;99.50;101166.66;21214336;27;20052;-78
2023/11/01 11:11:32;;;;;;;5.80;1.70;;;;;;;27.01;100.00;101137.75;21278459;27;20134;-77
2023/11/01 11:22:01;;;;;;;7.23;1.97;;;;;;;27.00;98.77;101113.41;21272524;27;20103;-78
2023/11/01 11:32:25;;;;;;;6.35;1.90;;;;;;;26.66;97.79;101123.06;21237546;27;20043;-77
2023/11/01 11:42:49;;;;;;;10.23;2.38;;;;;;;26.17;100.00;101133.34;21198135;27;20047;-78
2023/11/01 11:53:16;;;;;;;12.32;2.53;;;;;;;25.89;100.00;101140.84;21226044;27;20058;-78
2023/11/01 12:03:39;;;;;;;11.40;2.25;;;;;;;25.79;100.00;101134.06;21213112;27;20134;-78
2023/11/01 12:14:03;;;;;;;9.32;2.83;;;;;;;25.95;100.00;101148.72;21210931;27;20125;-81
2023/11/01 12:24:28;;;;;;;5.20;1.80;;;;;;;26.14;100.00;101149.69;21228622;27;20107;-81
2023/11/01 12:35:06;;;;;;;9.48;1.88;;;;;;;26.38;100.00;101157.75;21253455;27;20051;-82
2023/11/01 12:45:32;;;;;;;7.80;2.00;;;;;;;26.46;100.00;101166.41;21192073;27;20047;-81
2023/11/01 12:55:56;;;;;;;6.78;1.77;;;;;;;26.57;100.00;101192.09;21210123;27;20096;-83
2023/11/01 13:06:19;;;;;;;6.35;2.05;;;;;;;26.75;100.00;101194.94;21191091;27;20046;-82
2023/11/01 13:16:43;;;;;;;7.82;2.00;;;;;;;26.66;100.00;101170.94;21185008;28;20074;-82
2023/11/01 13:27:09;;;;;;;6.72;2.28;;;;;;;26.59;100.00;101154.97;21173264;28;20058;-82
2023/11/01 13:37:33;;;;;;;8.07;1.98;;;;;;;26.39;100.00;101148.66;21202051;27;20462;-82
2023/11/01 13:47:56;;;;;;;7.95;2.00;;;;;;;26.01;100.00;101150.28;21221881;27;20051;-82
2023/11/01 13:58:20;;;;;;;10.68;2.20;;;;;;;25.72;100.00;101133.44;21200196;27;20039;-81
2023/11/01 14:08:43;;;;;;;7.45;2.28;;;;;;;25.73;100.00;101140.59;21224004;27;20053;-82
2023/11/01 14:19:07;;;;;;;10.98;2.42;;;;;;;25.78;99.41;101140.44;21217591;27;20120;-81
2023/11/01 14:29:29;;;;;;;7.20;2.63;;;;;;;25.62;100.00;101134.75;21229121;27;20054;-83
2023/11/01 14:39:54;;;;;;;6.07;2.25;;;;;;;25.34;100.00;101134.94;21207671;27;20055;-82
2023/11/01 14:50:17;;;;;;;12.52;2.80;;;;;;;24.90;100.00;101138.47;21163490;27;20116;-79
2023/11/01 15:00:45;;;;;;;7.40;2.38;;;;;;;24.60;100.00;101145.88;21128840;27;20039;-79
2023/11/01 15:11:09;;;;;;;9.38;3.58;;;;;;;24.26;100.00;101153.38;21189041;27;20047;-79
2023/11/01 15:21:33;;;;;;;9.00;3.20;;;;;;;24.03;100.00;101154.13;21118339;27;20064;-79
2023/11/01 15:31:56;;;;;;;8.77;4.50;;;;;;;23.68;100.00;101152.63;21163365;27;20039;-80
2023/11/01 15:42:20;;;;;;;9.32;3.38;;;;;;;23.55;100.00;101152.13;21131537;28;20097;-80
2023/11/01 15:52:43;;;;;;;11.80;3.70;;;;;;;23.38;100.00;101159.78;21118998;28;20048;-81
2023/11/01 16:03:07;;;;;;;9.82;3.00;;;;;;;23.10;100.00;101140.03;21144773;28;20051;-81
2023/11/01 16:13:31;;;;;;;9.95;3.45;;;;;;;22.86;100.00;101153.28;21124630;27;20089;-79
2023/11/01 16:23:56;;;;;;;11.32;3.50;;;;;;;22.69;100.00;101157.34;21131507;27;20046;-79
2023/11/01 16:34:18;;;;;;;11.32;4.40;;;;;;;22.57;100.00;101159.47;21125283;27;20100;-79
2023/11/01 16:44:42;;;;;;;15.35;5.22;;;;;;;22.50;100.00;101148.91;21124365;28;20067;-79
2023/11/01 16:55:07;;;;;;;16.38;6.97;;;;;;;22.39;100.00;101145.59;21178932;28;20039;-79
2023/11/01 17:05:31;;;;;;;14.85;7.82;;;;;;;22.39;100.00;101151.84;21203080;27;20483;-79
2023/11/01 17:15:54;;;;;;;13.70;6.95;;;;;;;22.38;100.00;101162.69;21229216;27;20066;-81
2023/11/01 17:26:33;;;;;;;15.98;6.90;;;;;;;22.32;100.00;101176.31;21249623;27;20047;-78
2023/11/01 17:36:58;;;;;;;18.73;8.23;;;;;;;22.22;100.00;101162.19;21213646;27;20477;-77
2023/11/01 17:47:29;;;;;;;15.80;6.88;;;;;;;22.10;100.00;101162.50;21214052;27;20108;-79
2023/11/01 17:57:52;;;;;;;13.57;6.82;;;;;;;22.04;100.00;101155.50;21210624;27;20043;-80
2023/11/01 18:08:19;;;;;;;13.85;6.75;;;;;;;22.03;100.00;101180.59;21200311;27;20057;-77
2023/11/01 18:18:43;;;;;;;16.48;8.70;;;;;;;21.87;100.00;101177.38;21220818;27;20051;-79
2023/11/01 18:29:09;;;;;;;16.13;9.65;;;;;;;21.73;100.00;101184.88;21226137;27;20337;-79
2023/11/01 18:39:31;;;;;;;13.10;7.60;;;;;;;21.68;100.00;101178.72;21233552;27;20047;-79
2023/11/01 18:50:00;;;;;;;11.10;7.10;;;;;;;21.74;100.00;101169.63;21232912;27;20055;-80
2023/11/01 19:00:27;;;;;;;12.38;6.78;;;;;;;21.72;100.00;101175.06;21177073;27;20104;-79
2023/11/01 19:10:53;;;;;;;15.50;7.33;;;;;;;21.68;100.00;101180.53;21229987;27;20039;-78
2023/11/01 19:21:16;;;;;;;15.73;7.65;;;;;;;21.60;100.00;101179.81;21206208;27;20078;-78
2023/11/01 19:31:40;;;;;;;15.50;7.72;;;;;;;21.48;100.00;101186.34;21206098;27;20046;-79
2023/11/01 19:42:03;;;;;;;16.17;7.57;;;;;;;21.40;100.00;101189.22;21207677;27;20035;-79
2023/11/01 19:52:28;;;;;;;15.48;7.20;;;;;;;21.36;100.00;101189.31;21178523;27;20051;-78
2023/11/01 20:02:50;;;;;;;15.90;6.72;;;;;;;21.35;100.00;101176.81;21226804;27;20115;-81
2023/11/01 20:13:15;;;;;;;14.77;7.25;;;;;;;21.30;100.00;101197.50;21217821;27;20495;-81
2023/11/01 20:23:38;;;;;;;21.10;8.15;;;;;;;21.20;100.00;101169.97;21220091;27;20092;-79
2023/11/01 20:34:03;;;;;;;17.65;7.55;;;;;;;21.02;100.00;101168.53;21219965;27;20108;-80
2023/11/01 20:44:26;;;;;;;11.70;6.07;;;;;;;20.93;100.00;101159.78;21184483;27;20047;-79
2023/11/01 20:54:56;;;;;;;13.10;6.07;;;;;;;20.82;100.00;101160.00;21155579;28;20104;-79
2023/11/01 21:05:19;;;;;;;13.63;6.43;;;;;;;20.79;100.00;101156.50;21187039;28;20433;-80
2023/11/01 21:15:44;;;;;;;18.23;6.50;;;;;;;20.76;100.00;101153.84;21199107;28;20046;-79
2023/11/01 21:26:07;;;;;;;16.00;6.10;;;;;;;20.82;100.00;101148.38;21157690;28;20100;-81
2023/11/01 21:36:31;;;;;;;13.60;6.07;;;;;;;20.83;100.00;101147.47;21134857;28;20044;-79
2023/11/01 21:46:58;;;;;;;13.55;5.47;;;;;;;20.85;100.00;101132.22;21118639;27;20058;-80
2023/11/01 21:57:26;;;;;;;20.98;6.57;;;;;;;20.88;100.00;101134.81;21179437;27;20551;-78
2023/11/01 22:07:50;;;;;;;18.35;6.50;;;;;;;20.87;100.00;101130.41;21228272;27;20125;-78
2023/11/01 22:18:27;;;;;;;11.82;5.50;;;;;;;20.91;100.00;101118.66;21230562;27;20054;-78
2023/11/01 22:28:50;;;;;;;15.05;6.47;;;;;;;20.88;100.00;101126.75;21229021;27;20440;-79
2023/11/01 22:39:17;;;;;;;9.98;5.75;;;;;;;20.85;100.00;101129.53;21215172;27;20087;-79
2023/11/01 22:49:39;;;;;;;14.10;6.15;;;;;;;20.82;100.00;101119.72;21227671;27;20051;-79
2023/11/01 23:00:09;;;;;;;11.27;5.75;;;;;;;20.79;100.00;101124.28;21224662;27;20054;-79
2023/11/01 23:10:32;;;;;;;12.27;5.97;;;;;;;20.73;100.00;101143.19;21224808;27;20260;-80
2023/11/01 23:20:59;;;;;;;12.98;5.63;;;;;;;20.54;100.00;101146.25;21215332;27;20051;-79
2023/11/01 23:31:21;;;;;;;13.68;5.05;;;;;;;20.36;100.00;101154.63;21202771;27;20543;-78
2023/11/01 23:41:48;;;;;;;13.80;5.53;;;;;;;20.21;100.00;101154.88;21224018;27;20505;-78
2023/11/01 23:52:14;;;;;;;10.43;3.78;;;;;;;19.89;100.00;101148.25;21222354;27;20054;-78
